»·PEaware :: SWA6423 KONT-KLAS

SWA6423 :: KONT-KLAS

FLIGHT INFORMATION

Flight Status: Arrived
Operator:
Southwest Airlines
More flights by this operator :: More flights under this callsign
Pilot: Kevin M. (7)
Aircraft: BOEING 737-800
(B738)
More flights by this aircraft type
Origin: KONT Ontario Intl
United States
Destination: KLAS McCarran Intl
United States
More flights between these airports :: More routes between these airports
Route: POM9 DAG MISEN KEPEC6
File this flight plan on PilotEdge
Remarks:
Altitude:
(Current/Filed)
27,000ft
Speed:
(Current/Filed)
459kts
Departed: 28-Nov-17 07:33 PM
Arrived: 28-Nov-17 08:15 PM
Distance/Time
Traveled:
171nm/0:42
Distance/Time
To Go:
Arrived

Flight Plot

Page will automatically refresh every two minutes.

Flight plan parsing failed; only flown route is shown


Map Options




Map Legend


Flown Route
Filed Route
Departure Airport
Arrival Airport
Navaid (VOR, NDB)
Fix

Horizontal Profiles

Position Reports

Time Latitude Longitude Heading Altitude Ground
Speed
28-Nov-17 19:13 34.059694 -117.588728 359 951ft 0kts
28-Nov-17 19:14 34.059694 -117.588728 359 951ft 0kts
28-Nov-17 19:15 34.059694 -117.588728 359 951ft 0kts
28-Nov-17 19:16 34.059694 -117.588728 359 951ft 0kts
28-Nov-17 19:17 34.059694 -117.588728 359 951ft 0kts
28-Nov-17 19:18 34.059694 -117.588728 359 951ft 0kts
28-Nov-17 19:19 34.059694 -117.588728 359 951ft 0kts
28-Nov-17 19:20 34.059694 -117.588728 359 951ft 0kts
28-Nov-17 19:21 34.059694 -117.588728 359 951ft 0kts
28-Nov-17 19:22 34.059694 -117.588728 359 951ft 0kts
28-Nov-17 19:23 34.059694 -117.588728 0 951ft 0kts
28-Nov-17 19:24 34.059694 -117.588728 359 951ft 0kts
28-Nov-17 19:25 34.059694 -117.588728 359 951ft 0kts
28-Nov-17 19:26 34.059694 -117.588728 360 951ft 0kts
28-Nov-17 19:27 34.059416 -117.588729 0 951ft 2kts
28-Nov-17 19:28 34.059219 -117.588980 90 951ft 0kts
28-Nov-17 19:29 34.059219 -117.588980 90 951ft 0kts
28-Nov-17 19:30 34.059219 -117.588980 90 951ft 0kts
28-Nov-17 19:31 34.059219 -117.588980 90 951ft 0kts
28-Nov-17 19:32 34.059219 -117.588980 90 951ft 0kts
28-Nov-17 19:33 34.059219 -117.588980 90 951ft 0kts
28-Nov-17 19:34 34.059219 -117.588980 90 951ft 0kts
28-Nov-17 19:35 34.059221 -117.588759 88 951ft 7kts
28-Nov-17 19:36 34.059203 -117.582950 107 951ft 11kts
28-Nov-17 19:37 34.056892 -117.583376 270 951ft 5kts
28-Nov-17 19:38 34.056978 -117.607782 270 1679ft 160kts
28-Nov-17 19:39 34.056049 -117.660028 267 4892ft 185kts
28-Nov-17 19:40 34.053624 -117.736951 268 7790ft 278kts
28-Nov-17 19:41 34.096796 -117.807990 318 12271ft 303kts
28-Nov-17 19:42 34.166404 -117.889572 314 14261ft 405kts
28-Nov-17 19:43 34.242268 -117.973180 329 17777ft 434kts
28-Nov-17 19:44 34.353225 -117.940407 54 21565ft 464kts
28-Nov-17 19:45 34.362938 -117.790862 91 23240ft 473kts
28-Nov-17 19:46 34.438226 -117.661104 50 26198ft 502kts
28-Nov-17 19:47 34.503582 -117.513257 60 27141ft 506kts
28-Nov-17 19:48 34.574908 -117.366712 60 27131ft 505kts
28-Nov-17 19:49 34.643147 -117.226477 60 27128ft 505kts
28-Nov-17 19:50 34.714687 -117.080457 60 27128ft 506kts
28-Nov-17 19:51 34.783359 -116.940333 60 27122ft 507kts
28-Nov-17 19:52 34.856006 -116.793211 60 27122ft 507kts
28-Nov-17 19:53 34.928594 -116.646271 60 27125ft 509kts
28-Nov-17 19:54 35.015425 -116.511475 45 27083ft 516kts
28-Nov-17 19:55 35.099354 -116.407464 46 25068ft 511kts
28-Nov-17 19:56 35.199433 -116.281333 47 22274ft 479kts
28-Nov-17 19:57 35.275578 -116.184886 47 20805ft 467kts
28-Nov-17 19:58 35.364315 -116.072516 46 19102ft 454kts
28-Nov-17 19:59 35.450688 -115.963548 46 17277ft 440kts
28-Nov-17 20:00 35.548584 -115.839991 46 15424ft 426kts
28-Nov-17 20:01 35.616106 -115.754877 45 14128ft 405kts
28-Nov-17 20:02 35.687659 -115.664553 46 12966ft 333kts
28-Nov-17 20:03 35.754919 -115.582875 25 12930ft 257kts
28-Nov-17 20:04 35.812922 -115.572915 2 13096ft 290kts
28-Nov-17 20:05 35.898966 -115.567611 1 13022ft 314kts
28-Nov-17 20:06 35.978199 -115.537031 55 12850ft 318kts
28-Nov-17 20:07 36.010359 -115.440612 69 11639ft 289kts
28-Nov-17 20:08 36.029580 -115.349901 97 10684ft 271kts
28-Nov-17 20:09 36.022853 -115.261716 97 9662ft 269kts
28-Nov-17 20:10 36.016658 -115.174778 96 9008ft 261kts
28-Nov-17 20:11 36.010934 -115.087271 96 8288ft 249kts
28-Nov-17 20:12 36.005638 -115.002941 95 6915ft 245kts
28-Nov-17 20:13 36.000419 -114.920654 93 5986ft 228kts
28-Nov-17 20:14 36.025931 -114.863683 6 5828ft 210kts
28-Nov-17 20:15 36.074903 -114.885035 298 5149ft 195kts
28-Nov-17 20:16 36.073576 -114.950587 269 5053ft 196kts
28-Nov-17 20:17 36.074014 -115.014946 269 4000ft 182kts
28-Nov-17 20:18 36.073734 -115.069138 270 3061ft 144kts
28-Nov-17 20:19 36.073731 -115.117112 268 2341ft 136kts
28-Nov-17 20:20 36.074650 -115.145738 300 2149ft 23kts

Navigation Log

Ident Type
Flight plan parsing failed, navigation log unavailable